Louisa, VA

9:38 AM EDT on May 23, 2015 (GMT -0400)
Louisa - Northside | | Change Station
CLOSE
Current Station
Personal Weather Station
Location: Louisa, VA
Elevation: 371 ft
Nearby Weather Stations

Elev 371 ft 38.04 °N, 78.01 °W | Updated 51 seconds ago

Clear
Clear
59.2 °F
Feels Like 59.2 °F
N
1.0
Wind Variable Wind from NE
Gusts 8.0 mph

Today
High -- | Low -- °F
--% Chance of Precip.
Yesterday
High -- | Low -- °F
Precip. -- in
5:55 AM 8:22 PM
Waxing Crescent, 30% visible
Pressure 30.46 in
Visibility 10.0 miles
Clouds Clear
Dew Point 35 °F
Humidity 40%
Rainfall 0.00 in
Snow Depth Not available.
UV 5 out of 12
Pollen 7.70 out of 12
Air Quality Not available.
Flu Activity No Activity
METAR KLKU 231315Z AUTO 04005KT 10SM CLR 17/01 A3046 RMK AO2

More Conditions Fewer Conditions

Pressure 30.46 in
Visibility 10.0 miles
Clouds Clear
Dew Point 35 °F
Humidity 40%
Rainfall 0.00 in
Snow Depth Not available.
UV 5 out of 12
Pollen 7.70 out of 12
Air Quality Not available.
Flu Activity No Activity
METAR KLKU 231315Z AUTO 04005KT 10SM CLR 17/01 A3046 RMK AO2

More Conditions Fewer Conditions

10-Day Weather Forecast

Almanac

Astronomy

May. 23, 2015 Rise Set
Actual Time
Civil Twilight
Nautical Twilight
Astronomical Twilight
Moon
Length of Visible Light
Length of Day
Tomorrow will be .
, % of the Moon is Illuminated

Today's Extremes

State Highs State Lows

Community

WunderPhotos

Upload Photos

1,823,462 photos uploaded!

WunderBlogs® & News

Nearby

Air Quality

  Air Quality AQ Index Pollutant
Not available.

Snow Depth

Station Depth Elevation

Earthquake Activity

City Distance Mag. Time & Date
Minimum magnitude displayed is 2.5.

Coastal Water Temperatures

Place Temperature

Stations

Nearby Weather Stations

Station Location Temp. Windchill Dew Point Humidity Wind Precip. Elev Updated Type